createdAt,value
2022-10-02T00:03:13.242Z,2.37
2022-10-02T00:08:33.406Z,2.70
2022-10-02T00:13:53.460Z,2.00
2022-10-02T00:19:13.634Z,1.83
2022-10-02T00:24:33.800Z,4.43
2022-10-02T00:29:54.002Z,4.50
2022-10-02T00:35:14.051Z,2.37
2022-10-02T00:40:34.133Z,2.60
2022-10-02T00:45:54.243Z,2.90
2022-10-02T00:51:14.453Z,2.30
2022-10-02T00:56:34.804Z,3.03
2022-10-02T01:01:54.783Z,1.73
2022-10-02T01:07:14.918Z,2.67
2022-10-02T01:12:35.195Z,2.43
2022-10-02T01:17:55.243Z,2.70
2022-10-02T01:23:15.447Z,2.53
2022-10-02T01:28:35.616Z,3.23
2022-10-02T01:33:55.868Z,2.60
2022-10-02T01:39:15.912Z,2.50
2022-10-02T01:44:36.240Z,2.70
2022-10-02T01:49:56.439Z,2.10
2022-10-02T01:55:16.514Z,3.17
2022-10-02T02:00:36.722Z,2.10
2022-10-02T02:05:57.251Z,2.50
2022-10-02T02:11:17.347Z,2.00
2022-10-02T02:16:37.956Z,3.00
2022-10-02T02:21:58.237Z,2.70
2022-10-02T02:27:18.439Z,2.43
2022-10-02T02:32:39.100Z,2.60
2022-10-02T02:37:59.206Z,2.90
2022-10-02T02:43:19.326Z,2.47
2022-10-02T02:48:41.735Z,2.43
2022-10-02T02:54:01.789Z,2.43
2022-10-02T02:59:22.093Z,3.83
2022-10-02T03:04:42.281Z,2.37
2022-10-02T03:10:02.762Z,2.47
2022-10-02T03:15:23.204Z,3.00
2022-10-02T03:20:44.046Z,2.50
2022-10-02T03:26:04.288Z,2.03
2022-10-02T03:31:24.630Z,1.97
2022-10-02T03:36:44.721Z,1.70
2022-10-02T03:42:04.800Z,1.70
2022-10-02T03:47:24.853Z,2.30
2022-10-02T03:52:45.108Z,2.43
2022-10-02T03:58:05.134Z,2.17
2022-10-02T04:03:25.291Z,2.33
2022-10-02T04:08:45.406Z,1.77
2022-10-02T04:14:05.604Z,2.50
2022-10-02T04:19:25.755Z,1.83
2022-10-02T04:24:45.846Z,3.00
2022-10-02T04:30:05.958Z,3.43
2022-10-02T04:35:26.292Z,2.53
2022-10-02T04:40:46.356Z,2.00
2022-10-02T04:46:06.475Z,2.60
2022-10-02T04:51:26.506Z,1.57
2022-10-02T04:56:46.806Z,2.50
2022-10-02T05:02:07.106Z,2.10
2022-10-02T05:07:27.303Z,2.47
2022-10-02T05:12:47.425Z,2.37
2022-10-02T05:18:07.607Z,2.13
2022-10-02T05:23:27.675Z,2.30
2022-10-02T05:28:47.832Z,2.33
2022-10-02T05:34:07.880Z,2.70
2022-10-02T05:39:28.071Z,3.57
2022-10-02T05:44:48.235Z,2.50
2022-10-02T05:50:08.352Z,2.30
2022-10-02T05:55:28.959Z,2.20
2022-10-02T06:00:49.196Z,2.20
2022-10-02T06:06:09.249Z,2.50
2022-10-02T06:11:29.370Z,3.00
2022-10-02T06:16:49.510Z,1.80
2022-10-02T06:22:09.615Z,2.07
2022-10-02T06:27:29.733Z,2.00
2022-10-02T06:32:49.786Z,2.37
2022-10-02T06:38:10.010Z,1.80
2022-10-02T06:43:30.149Z,2.80
2022-10-02T06:48:50.441Z,3.30
2022-10-02T06:54:10.585Z,2.30
2022-10-02T06:59:30.821Z,2.37
2022-10-02T07:04:50.811Z,1.83
2022-10-02T07:10:11.314Z,2.80
2022-10-02T07:15:31.451Z,2.87
2022-10-02T07:20:51.710Z,2.17
2022-10-02T07:26:11.877Z,2.23
2022-10-02T07:31:32.066Z,2.80
2022-10-02T07:36:52.211Z,2.93
2022-10-02T07:42:12.258Z,2.00
2022-10-02T07:47:32.423Z,1.63
2022-10-02T07:52:52.580Z,1.87
2022-10-02T07:58:12.687Z,2.23
2022-10-02T08:03:32.947Z,3.13
2022-10-02T08:08:52.951Z,2.67
2022-10-02T08:14:13.163Z,2.00
2022-10-02T08:19:33.356Z,1.70
2022-10-02T08:24:53.479Z,1.67
2022-10-02T08:30:13.505Z,2.53
2022-10-02T08:35:33.668Z,2.27
2022-10-02T08:40:53.636Z,1.47
2022-10-02T08:46:16.792Z,1.67
2022-10-02T08:51:36.953Z,2.00
2022-10-02T08:56:57.028Z,2.23
2022-10-02T09:02:17.189Z,2.13
2022-10-02T09:07:37.269Z,2.07
2022-10-02T09:12:57.320Z,3.07
2022-10-02T09:18:17.498Z,2.67
2022-10-02T09:23:37.552Z,2.30
2022-10-02T09:28:57.696Z,1.97
2022-10-02T09:34:17.812Z,2.90
2022-10-02T09:39:37.907Z,2.40
2022-10-02T09:45:01.154Z,1.60
2022-10-02T09:50:21.746Z,2.77
2022-10-02T09:55:42.044Z,2.23
2022-10-02T10:01:02.317Z,3.20
2022-10-02T10:06:22.428Z,1.93
2022-10-02T10:11:43.427Z,1.97
2022-10-02T10:17:03.594Z,1.60
2022-10-02T10:22:23.716Z,3.07
2022-10-02T10:27:43.927Z,3.17
2022-10-02T10:33:04.031Z,2.23
2022-10-02T10:38:24.362Z,1.70
2022-10-02T10:43:44.453Z,2.33
2022-10-02T10:49:04.701Z,1.93
2022-10-02T10:54:24.819Z,2.10
2022-10-02T10:59:45.113Z,2.63
2022-10-02T11:05:05.130Z,2.00
2022-10-02T11:10:25.236Z,1.77
2022-10-02T11:15:45.363Z,2.00
2022-10-02T11:21:05.492Z,1.83
2022-10-02T11:26:25.663Z,1.40
2022-10-02T11:31:45.791Z,1.50
2022-10-02T11:37:05.926Z,2.07
2022-10-02T11:42:26.055Z,1.43
2022-10-02T11:47:46.356Z,2.50
2022-10-02T11:53:06.343Z,1.43
2022-10-02T11:58:26.511Z,1.53
2022-10-02T12:03:46.761Z,1.67
2022-10-02T12:09:06.940Z,1.40
2022-10-02T12:14:27.008Z,2.03
2022-10-02T12:19:47.204Z,2.57
2022-10-02T12:25:07.306Z,1.90
2022-10-02T12:30:27.518Z,1.63
2022-10-02T12:35:47.555Z,2.20
2022-10-02T12:41:07.701Z,2.80
2022-10-02T12:46:27.725Z,1.37
2022-10-02T12:51:47.819Z,1.63
2022-10-02T12:57:07.865Z,1.70
2022-10-02T13:02:49.146Z,2.67
2022-10-02T13:08:07.887Z,2.20
2022-10-02T13:13:28.071Z,1.20
2022-10-02T13:18:48.264Z,1.33
2022-10-02T13:24:08.308Z,1.30
2022-10-02T13:29:28.416Z,1.80
2022-10-02T13:34:48.627Z,2.77
2022-10-02T13:40:08.702Z,7.20
2022-10-02T13:45:28.999Z,9.73
2022-10-02T13:50:49.005Z,8.20
2022-10-02T13:56:14.706Z,5.03
2022-10-02T14:01:35.854Z,2.73
2022-10-02T14:06:56.170Z,5.37
2022-10-02T14:12:16.320Z,3.53
2022-10-02T14:17:36.492Z,4.80
2022-10-02T14:22:57.006Z,8.07
2022-10-02T14:28:17.140Z,2.80
2022-10-02T14:33:37.326Z,5.70
2022-10-02T14:38:57.363Z,4.07
2022-10-02T14:44:17.622Z,5.23
2022-10-02T14:49:37.653Z,1.90
2022-10-02T14:54:57.858Z,5.30
2022-10-02T15:00:17.895Z,6.63
2022-10-02T15:05:38.039Z,4.03
2022-10-02T15:10:58.108Z,4.00
2022-10-02T15:16:18.230Z,5.37
2022-10-02T15:21:38.635Z,3.30
2022-10-02T15:26:58.980Z,4.20
2022-10-02T15:32:19.184Z,3.57
2022-10-02T15:37:39.428Z,6.23
2022-10-02T15:42:59.546Z,3.70
2022-10-02T15:48:20.799Z,3.77
2022-10-02T15:53:40.950Z,7.30
2022-10-02T15:59:01.230Z,7.97
2022-10-02T16:04:21.462Z,12.90
2022-10-02T16:09:41.679Z,3.53
2022-10-02T16:15:01.709Z,5.43
2022-10-02T16:20:21.764Z,5.93
2022-10-02T16:25:41.771Z,4.63
2022-10-02T16:31:02.093Z,5.53
2022-10-02T16:36:22.123Z,6.00
2022-10-02T16:41:42.289Z,8.00
2022-10-02T16:47:02.483Z,8.40
2022-10-02T16:52:22.764Z,6.83
2022-10-02T16:57:42.894Z,7.70
2022-10-02T17:03:03.182Z,7.97
2022-10-02T17:08:23.225Z,4.10
2022-10-02T17:13:43.524Z,6.97
2022-10-02T17:19:03.506Z,8.30
2022-10-02T17:24:23.775Z,7.07
2022-10-02T17:29:43.887Z,7.20
2022-10-02T17:35:04.124Z,7.37
2022-10-02T17:40:24.309Z,8.27
2022-10-02T17:45:44.623Z,4.37
2022-10-02T17:51:15.021Z,6.77
2022-10-02T17:56:44.603Z,12.17
2022-10-02T18:02:04.842Z,9.50
2022-10-02T18:07:25.009Z,7.17
2022-10-02T18:12:45.074Z,14.43
2022-10-02T18:18:05.340Z,5.17
2022-10-02T18:23:27.380Z,7.33
2022-10-02T18:28:47.640Z,5.83
2022-10-02T18:34:07.671Z,22.67
2022-10-02T18:39:27.852Z,14.07
2022-10-02T18:44:47.997Z,14.00
2022-10-02T18:50:08.173Z,22.37
2022-10-02T18:55:28.291Z,14.27
2022-10-02T19:00:48.544Z,15.17
2022-10-02T19:06:09.490Z,14.03
2022-10-02T19:11:29.663Z,10.50
2022-10-02T19:16:49.865Z,13.87
2022-10-02T19:22:09.970Z,13.93
2022-10-02T19:27:30.037Z,10.00
2022-10-02T19:32:50.035Z,12.23
2022-10-02T19:38:10.228Z,10.83
2022-10-02T19:43:30.561Z,8.70
2022-10-02T19:48:50.682Z,10.70
2022-10-02T19:54:10.881Z,10.23
2022-10-02T19:59:30.896Z,11.50
2022-10-02T20:04:51.074Z,9.57
2022-10-02T20:10:11.791Z,13.80
2022-10-02T20:15:31.943Z,11.80
2022-10-02T20:20:52.108Z,7.90
2022-10-02T20:26:12.219Z,7.50
2022-10-02T20:31:32.493Z,9.13
2022-10-02T20:36:52.640Z,8.37
2022-10-02T20:42:12.775Z,7.80
2022-10-02T20:47:33.078Z,10.03
2022-10-02T20:52:53.259Z,7.10
2022-10-02T20:58:13.481Z,7.27
2022-10-02T21:03:33.524Z,5.70
2022-10-02T21:08:53.762Z,13.13
2022-10-02T21:14:13.787Z,6.67
2022-10-02T21:19:34.015Z,8.27
2022-10-02T21:24:54.012Z,5.07
2022-10-02T21:30:14.243Z,7.07
2022-10-02T21:35:34.356Z,14.17
2022-10-02T21:40:54.604Z,5.40
2022-10-02T21:46:14.950Z,5.70
2022-10-02T21:51:35.355Z,7.27
2022-10-02T21:56:55.720Z,6.77
2022-10-02T22:02:16.659Z,6.20
2022-10-02T22:07:37.207Z,6.00
2022-10-02T22:12:57.404Z,4.47
2022-10-02T22:18:17.418Z,6.93
2022-10-02T22:23:37.605Z,5.03
2022-10-02T22:28:57.638Z,5.90
2022-10-02T22:34:20.348Z,8.17
2022-10-02T22:39:42.874Z,5.70
2022-10-02T22:45:03.004Z,5.07
2022-10-02T22:50:23.055Z,4.97
2022-10-02T22:55:43.315Z,6.67
2022-10-02T23:01:03.465Z,5.53
2022-10-02T23:06:24.738Z,4.23
2022-10-02T23:11:45.561Z,5.30
2022-10-02T23:17:05.676Z,4.03
2022-10-02T23:22:25.929Z,5.33
2022-10-02T23:27:46.171Z,4.63
2022-10-02T23:33:06.261Z,5.70
2022-10-02T23:38:26.511Z,5.10
2022-10-02T23:43:46.660Z,4.53
2022-10-02T23:49:06.840Z,6.00
2022-10-02T23:54:26.915Z,4.60
2022-10-02T23:59:47.071Z,5.57
